sensor_id;sensor_type;location;lat;lon;timestamp;P1;durP1;ratioP1;P2;durP2;ratioP2
1591;SDS011;789;51.612;7.510;2023-03-23T00:01:26;9.80;;;6.17;;
1591;SDS011;789;51.612;7.510;2023-03-23T00:03:55;7.83;;;6.33;;
1591;SDS011;789;51.612;7.510;2023-03-23T00:06:23;12.53;;;6.87;;
1591;SDS011;789;51.612;7.510;2023-03-23T00:08:53;8.50;;;6.60;;
1591;SDS011;789;51.612;7.510;2023-03-23T00:11:24;13.53;;;6.63;;
1591;SDS011;789;51.612;7.510;2023-03-23T00:13:54;8.73;;;6.33;;
1591;SDS011;789;51.612;7.510;2023-03-23T00:16:23;9.23;;;6.87;;
1591;SDS011;789;51.612;7.510;2023-03-23T00:18:56;7.93;;;6.83;;
1591;SDS011;789;51.612;7.510;2023-03-23T00:21:24;10.33;;;6.67;;
1591;SDS011;789;51.612;7.510;2023-03-23T00:23:59;8.20;;;7.10;;
1591;SDS011;789;51.612;7.510;2023-03-23T00:26:31;10.93;;;7.73;;
1591;SDS011;789;51.612;7.510;2023-03-23T00:28:59;9.30;;;6.87;;
1591;SDS011;789;51.612;7.510;2023-03-23T00:31:27;12.67;;;6.63;;
1591;SDS011;789;51.612;7.510;2023-03-23T00:33:57;7.90;;;6.63;;
1591;SDS011;789;51.612;7.510;2023-03-23T00:36:27;6.53;;;5.60;;
1591;SDS011;789;51.612;7.510;2023-03-23T00:38:54;8.23;;;6.23;;
1591;SDS011;789;51.612;7.510;2023-03-23T00:41:25;6.80;;;5.30;;
1591;SDS011;789;51.612;7.510;2023-03-23T00:43:53;11.93;;;8.60;;
1591;SDS011;789;51.612;7.510;2023-03-23T00:46:20;9.20;;;6.50;;
1591;SDS011;789;51.612;7.510;2023-03-23T00:48:47;6.97;;;6.27;;
1591;SDS011;789;51.612;7.510;2023-03-23T00:51:15;12.10;;;8.47;;
1591;SDS011;789;51.612;7.510;2023-03-23T00:53:42;8.20;;;6.00;;
1591;SDS011;789;51.612;7.510;2023-03-23T00:56:09;9.53;;;6.90;;
1591;SDS011;789;51.612;7.510;2023-03-23T00:58:37;8.30;;;5.90;;
1591;SDS011;789;51.612;7.510;2023-03-23T01:01:05;7.80;;;5.13;;
1591;SDS011;789;51.612;7.510;2023-03-23T01:03:32;6.23;;;4.90;;
1591;SDS011;789;51.612;7.510;2023-03-23T01:06:03;8.57;;;5.90;;
1591;SDS011;789;51.612;7.510;2023-03-23T01:08:33;7.13;;;4.90;;
1591;SDS011;789;51.612;7.510;2023-03-23T01:11:04;7.50;;;5.27;;
1591;SDS011;789;51.612;7.510;2023-03-23T01:13:32;6.30;;;4.13;;
1591;SDS011;789;51.612;7.510;2023-03-23T01:16:00;7.10;;;4.37;;
1591;SDS011;789;51.612;7.510;2023-03-23T01:18:28;9.07;;;4.77;;
1591;SDS011;789;51.612;7.510;2023-03-23T01:20:55;6.13;;;4.40;;
1591;SDS011;789;51.612;7.510;2023-03-23T01:23:22;7.03;;;4.00;;
1591;SDS011;789;51.612;7.510;2023-03-23T01:25:49;5.43;;;4.10;;
1591;SDS011;789;51.612;7.510;2023-03-23T01:28:17;4.40;;;3.40;;
1591;SDS011;789;51.612;7.510;2023-03-23T01:30:44;6.33;;;4.13;;
1591;SDS011;789;51.612;7.510;2023-03-23T01:33:12;6.07;;;3.80;;
1591;SDS011;789;51.612;7.510;2023-03-23T01:35:40;8.43;;;3.80;;
1591;SDS011;789;51.612;7.510;2023-03-23T01:38:07;5.80;;;3.70;;
1591;SDS011;789;51.612;7.510;2023-03-23T01:40:33;4.33;;;3.77;;
1591;SDS011;789;51.612;7.510;2023-03-23T01:43:00;4.33;;;3.50;;
1591;SDS011;789;51.612;7.510;2023-03-23T01:45:28;4.80;;;3.50;;
1591;SDS011;789;51.612;7.510;2023-03-23T01:48:10;5.53;;;3.50;;
1591;SDS011;789;51.612;7.510;2023-03-23T01:50:47;4.40;;;3.90;;
1591;SDS011;789;51.612;7.510;2023-03-23T01:53:18;3.97;;;3.13;;
1591;SDS011;789;51.612;7.510;2023-03-23T01:55:46;5.63;;;3.80;;
1591;SDS011;789;51.612;7.510;2023-03-23T01:58:16;5.63;;;3.33;;
1591;SDS011;789;51.612;7.510;2023-03-23T02:00:44;3.23;;;2.93;;
1591;SDS011;789;51.612;7.510;2023-03-23T02:03:14;3.80;;;3.03;;
1591;SDS011;789;51.612;7.510;2023-03-23T02:05:42;6.07;;;5.00;;
1591;SDS011;789;51.612;7.510;2023-03-23T02:08:10;5.53;;;4.20;;
1591;SDS011;789;51.612;7.510;2023-03-23T02:10:38;7.77;;;6.97;;
1591;SDS011;789;51.612;7.510;2023-03-23T02:13:06;6.10;;;4.43;;
1591;SDS011;789;51.612;7.510;2023-03-23T02:15:37;5.70;;;4.83;;
1591;SDS011;789;51.612;7.510;2023-03-23T02:18:15;7.70;;;5.80;;
1591;SDS011;789;51.612;7.510;2023-03-23T02:21:04;4.80;;;3.30;;
1591;SDS011;789;51.612;7.510;2023-03-23T02:23:57;3.50;;;3.20;;
1591;SDS011;789;51.612;7.510;2023-03-23T02:26:50;5.10;;;4.10;;
1591;SDS011;789;51.612;7.510;2023-03-23T02:32:23;3.23;;;2.93;;
1591;SDS011;789;51.612;7.510;2023-03-23T02:35:12;2.80;;;2.50;;
1591;SDS011;789;51.612;7.510;2023-03-23T02:37:45;2.80;;;2.50;;
1591;SDS011;789;51.612;7.510;2023-03-23T02:40:16;2.60;;;2.40;;
1591;SDS011;789;51.612;7.510;2023-03-23T02:42:47;3.93;;;2.97;;
1591;SDS011;789;51.612;7.510;2023-03-23T02:45:18;4.27;;;2.77;;
1591;SDS011;789;51.612;7.510;2023-03-23T02:47:49;3.30;;;3.00;;
1591;SDS011;789;51.612;7.510;2023-03-23T02:50:21;2.73;;;2.53;;
1591;SDS011;789;51.612;7.510;2023-03-23T02:52:50;6.87;;;4.23;;
1591;SDS011;789;51.612;7.510;2023-03-23T02:55:18;13.70;;;5.20;;
1591;SDS011;789;51.612;7.510;2023-03-23T02:57:48;9.43;;;5.30;;
1591;SDS011;789;51.612;7.510;2023-03-23T03:00:16;12.03;;;7.90;;
1591;SDS011;789;51.612;7.510;2023-03-23T03:02:43;14.23;;;8.07;;
1591;SDS011;789;51.612;7.510;2023-03-23T03:05:13;5.73;;;4.43;;
1591;SDS011;789;51.612;7.510;2023-03-23T03:07:56;10.50;;;8.20;;
1591;SDS011;789;51.612;7.510;2023-03-23T03:10:28;12.87;;;6.20;;
1591;SDS011;789;51.612;7.510;2023-03-23T03:13:03;12.90;;;8.60;;
1591;SDS011;789;51.612;7.510;2023-03-23T03:15:35;13.67;;;7.30;;
1591;SDS011;789;51.612;7.510;2023-03-23T03:18:05;9.87;;;7.50;;
1591;SDS011;789;51.612;7.510;2023-03-23T03:20:40;10.40;;;6.50;;
1591;SDS011;789;51.612;7.510;2023-03-23T03:23:10;8.63;;;6.10;;
1591;SDS011;789;51.612;7.510;2023-03-23T03:25:39;10.13;;;6.63;;
1591;SDS011;789;51.612;7.510;2023-03-23T03:28:12;6.17;;;4.40;;
1591;SDS011;789;51.612;7.510;2023-03-23T03:30:40;12.90;;;6.97;;
1591;SDS011;789;51.612;7.510;2023-03-23T03:33:09;7.73;;;5.10;;
1591;SDS011;789;51.612;7.510;2023-03-23T03:35:39;4.70;;;3.57;;
1591;SDS011;789;51.612;7.510;2023-03-23T03:38:08;5.30;;;4.47;;
1591;SDS011;789;51.612;7.510;2023-03-23T03:40:37;9.97;;;5.50;;
1591;SDS011;789;51.612;7.510;2023-03-23T03:43:04;7.47;;;4.37;;
1591;SDS011;789;51.612;7.510;2023-03-23T03:45:31;5.10;;;4.50;;
1591;SDS011;789;51.612;7.510;2023-03-23T03:47:58;6.90;;;4.40;;
1591;SDS011;789;51.612;7.510;2023-03-23T03:50:26;4.70;;;3.20;;
1591;SDS011;789;51.612;7.510;2023-03-23T03:52:54;11.93;;;4.37;;
1591;SDS011;789;51.612;7.510;2023-03-23T03:55:22;5.30;;;3.70;;
1591;SDS011;789;51.612;7.510;2023-03-23T03:57:48;4.80;;;3.63;;
1591;SDS011;789;51.612;7.510;2023-03-23T04:00:15;4.20;;;3.80;;
1591;SDS011;789;51.612;7.510;2023-03-23T04:02:43;3.60;;;2.77;;
1591;SDS011;789;51.612;7.510;2023-03-23T04:05:16;4.17;;;3.80;;
1591;SDS011;789;51.612;7.510;2023-03-23T04:07:44;5.40;;;4.53;;
1591;SDS011;789;51.612;7.510;2023-03-23T04:10:15;5.37;;;3.47;;
1591;SDS011;789;51.612;7.510;2023-03-23T04:12:44;7.07;;;4.67;;
1591;SDS011;789;51.612;7.510;2023-03-23T04:15:11;4.37;;;3.50;;
1591;SDS011;789;51.612;7.510;2023-03-23T04:17:38;8.47;;;5.93;;
1591;SDS011;789;51.612;7.510;2023-03-23T04:20:06;12.03;;;4.80;;
1591;SDS011;789;51.612;7.510;2023-03-23T04:22:42;12.57;;;6.90;;
1591;SDS011;789;51.612;7.510;2023-03-23T04:25:14;9.50;;;6.37;;
1591;SDS011;789;51.612;7.510;2023-03-23T04:27:45;7.53;;;5.77;;
1591;SDS011;789;51.612;7.510;2023-03-23T04:30:18;5.60;;;4.10;;
1591;SDS011;789;51.612;7.510;2023-03-23T04:32:46;5.77;;;4.40;;
1591;SDS011;789;51.612;7.510;2023-03-23T04:35:18;5.60;;;3.53;;
1591;SDS011;789;51.612;7.510;2023-03-23T04:37:46;5.90;;;3.87;;
1591;SDS011;789;51.612;7.510;2023-03-23T04:40:14;3.57;;;3.27;;
1591;SDS011;789;51.612;7.510;2023-03-23T04:42:43;3.10;;;2.83;;
1591;SDS011;789;51.612;7.510;2023-03-23T04:45:12;3.30;;;2.83;;
1591;SDS011;789;51.612;7.510;2023-03-23T04:47:40;2.60;;;2.40;;
1591;SDS011;789;51.612;7.510;2023-03-23T04:50:14;7.57;;;2.60;;
1591;SDS011;789;51.612;7.510;2023-03-23T04:52:42;3.90;;;3.10;;
1591;SDS011;789;51.612;7.510;2023-03-23T04:55:10;4.90;;;3.10;;
1591;SDS011;789;51.612;7.510;2023-03-23T04:57:39;4.60;;;3.30;;
1591;SDS011;789;51.612;7.510;2023-03-23T05:00:06;3.17;;;2.87;;
1591;SDS011;789;51.612;7.510;2023-03-23T05:02:39;3.20;;;2.67;;
1591;SDS011;789;51.612;7.510;2023-03-23T05:05:06;4.13;;;2.83;;
1591;SDS011;789;51.612;7.510;2023-03-23T05:07:33;3.13;;;2.83;;
1591;SDS011;789;51.612;7.510;2023-03-23T05:10:00;2.70;;;2.50;;
1591;SDS011;789;51.612;7.510;2023-03-23T05:12:27;5.07;;;2.63;;
1591;SDS011;789;51.612;7.510;2023-03-23T05:14:55;2.90;;;2.70;;
1591;SDS011;789;51.612;7.510;2023-03-23T05:17:22;5.30;;;3.00;;
1591;SDS011;789;51.612;7.510;2023-03-23T05:19:49;3.33;;;2.60;;
1591;SDS011;789;51.612;7.510;2023-03-23T05:22:16;2.87;;;2.40;;
1591;SDS011;789;51.612;7.510;2023-03-23T05:24:45;3.67;;;2.40;;
1591;SDS011;789;51.612;7.510;2023-03-23T05:27:12;2.87;;;2.33;;
1591;SDS011;789;51.612;7.510;2023-03-23T05:29:42;3.13;;;2.50;;
1591;SDS011;789;51.612;7.510;2023-03-23T05:32:12;3.43;;;2.73;;
1591;SDS011;789;51.612;7.510;2023-03-23T05:34:42;5.70;;;2.67;;
1591;SDS011;789;51.612;7.510;2023-03-23T05:37:09;2.87;;;2.57;;
1591;SDS011;789;51.612;7.510;2023-03-23T05:39:37;2.40;;;2.20;;
1591;SDS011;789;51.612;7.510;2023-03-23T05:42:04;2.60;;;2.27;;
1591;SDS011;789;51.612;7.510;2023-03-23T05:44:32;4.70;;;2.80;;
1591;SDS011;789;51.612;7.510;2023-03-23T05:46:59;4.10;;;3.00;;
1591;SDS011;789;51.612;7.510;2023-03-23T05:49:27;2.70;;;2.50;;
1591;SDS011;789;51.612;7.510;2023-03-23T05:51:54;4.33;;;2.57;;
1591;SDS011;789;51.612;7.510;2023-03-23T05:54:21;7.03;;;2.47;;
1591;SDS011;789;51.612;7.510;2023-03-23T05:56:48;3.23;;;2.90;;
1591;SDS011;789;51.612;7.510;2023-03-23T05:59:15;3.90;;;2.70;;
1591;SDS011;789;51.612;7.510;2023-03-23T06:01:42;2.60;;;2.20;;
1591;SDS011;789;51.612;7.510;2023-03-23T06:04:09;2.30;;;2.10;;
1591;SDS011;789;51.612;7.510;2023-03-23T06:06:38;2.60;;;2.13;;
1591;SDS011;789;51.612;7.510;2023-03-23T06:09:06;7.27;;;2.83;;
1591;SDS011;789;51.612;7.510;2023-03-23T06:11:33;4.67;;;2.57;;
1591;SDS011;789;51.612;7.510;2023-03-23T06:14:00;4.73;;;2.67;;
1591;SDS011;789;51.612;7.510;2023-03-23T06:16:27;3.60;;;2.50;;
1591;SDS011;789;51.612;7.510;2023-03-23T06:18:54;3.50;;;2.60;;
1591;SDS011;789;51.612;7.510;2023-03-23T06:21:22;3.23;;;2.67;;
1591;SDS011;789;51.612;7.510;2023-03-23T06:23:53;2.80;;;2.60;;
1591;SDS011;789;51.612;7.510;2023-03-23T06:26:20;3.20;;;2.80;;
1591;SDS011;789;51.612;7.510;2023-03-23T06:28:53;2.97;;;2.50;;
1591;SDS011;789;51.612;7.510;2023-03-23T06:31:20;5.27;;;3.27;;
1591;SDS011;789;51.612;7.510;2023-03-23T06:33:47;4.10;;;2.77;;
1591;SDS011;789;51.612;7.510;2023-03-23T06:36:14;4.73;;;2.70;;
1591;SDS011;789;51.612;7.510;2023-03-23T06:38:41;6.23;;;2.93;;
1591;SDS011;789;51.612;7.510;2023-03-23T06:41:10;5.07;;;2.60;;
1591;SDS011;789;51.612;7.510;2023-03-23T06:43:36;3.83;;;2.80;;
1591;SDS011;789;51.612;7.510;2023-03-23T06:46:04;3.40;;;2.93;;
1591;SDS011;789;51.612;7.510;2023-03-23T06:48:31;4.43;;;3.03;;
1591;SDS011;789;51.612;7.510;2023-03-23T06:50:59;7.40;;;3.47;;
1591;SDS011;789;51.612;7.510;2023-03-23T06:53:27;6.10;;;3.37;;
1591;SDS011;789;51.612;7.510;2023-03-23T06:55:54;4.07;;;2.93;;
1591;SDS011;789;51.612;7.510;2023-03-23T06:58:22;4.17;;;3.27;;
1591;SDS011;789;51.612;7.510;2023-03-23T07:00:52;4.57;;;2.90;;
1591;SDS011;789;51.612;7.510;2023-03-23T07:03:20;5.43;;;3.00;;
1591;SDS011;789;51.612;7.510;2023-03-23T07:05:47;4.50;;;3.10;;
1591;SDS011;789;51.612;7.510;2023-03-23T07:08:14;4.33;;;2.93;;
1591;SDS011;789;51.612;7.510;2023-03-23T07:10:40;6.17;;;2.70;;
1591;SDS011;789;51.612;7.510;2023-03-23T07:13:07;4.33;;;2.90;;
1591;SDS011;789;51.612;7.510;2023-03-23T07:15:35;9.50;;;3.17;;
1591;SDS011;789;51.612;7.510;2023-03-23T07:18:05;7.53;;;3.10;;
1591;SDS011;789;51.612;7.510;2023-03-23T07:20:32;5.40;;;3.10;;
1591;SDS011;789;51.612;7.510;2023-03-23T07:23:01;4.43;;;2.93;;
1591;SDS011;789;51.612;7.510;2023-03-23T07:25:30;4.37;;;2.80;;
1591;SDS011;789;51.612;7.510;2023-03-23T07:27:57;6.50;;;3.30;;
1591;SDS011;789;51.612;7.510;2023-03-23T07:30:25;3.87;;;2.70;;
1591;SDS011;789;51.612;7.510;2023-03-23T07:32:53;8.50;;;3.27;;
1591;SDS011;789;51.612;7.510;2023-03-23T07:35:20;4.30;;;2.80;;
1591;SDS011;789;51.612;7.510;2023-03-23T07:37:47;4.07;;;2.90;;
1591;SDS011;789;51.612;7.510;2023-03-23T07:40:14;4.10;;;2.50;;
1591;SDS011;789;51.612;7.510;2023-03-23T07:42:43;6.33;;;2.60;;
1591;SDS011;789;51.612;7.510;2023-03-23T07:45:11;16.63;;;3.70;;
1591;SDS011;789;51.612;7.510;2023-03-23T07:47:39;5.93;;;2.60;;
1591;SDS011;789;51.612;7.510;2023-03-23T07:50:08;4.27;;;2.90;;
1591;SDS011;789;51.612;7.510;2023-03-23T07:52:36;5.17;;;2.60;;
1591;SDS011;789;51.612;7.510;2023-03-23T07:55:03;11.03;;;2.70;;
1591;SDS011;789;51.612;7.510;2023-03-23T07:57:31;5.83;;;3.00;;
1591;SDS011;789;51.612;7.510;2023-03-23T07:59:59;6.80;;;3.33;;
1591;SDS011;789;51.612;7.510;2023-03-23T08:02:28;34.77;;;4.27;;
1591;SDS011;789;51.612;7.510;2023-03-23T08:04:56;6.40;;;2.90;;
1591;SDS011;789;51.612;7.510;2023-03-23T08:07:27;7.47;;;2.73;;
1591;SDS011;789;51.612;7.510;2023-03-23T08:09:54;5.50;;;2.20;;
1591;SDS011;789;51.612;7.510;2023-03-23T08:12:20;8.73;;;3.47;;
1591;SDS011;789;51.612;7.510;2023-03-23T08:14:47;4.57;;;2.40;;
1591;SDS011;789;51.612;7.510;2023-03-23T08:17:14;9.93;;;2.67;;
1591;SDS011;789;51.612;7.510;2023-03-23T08:19:41;10.60;;;3.03;;
1591;SDS011;789;51.612;7.510;2023-03-23T08:22:08;4.73;;;2.30;;
1591;SDS011;789;51.612;7.510;2023-03-23T08:24:36;4.83;;;3.10;;
1591;SDS011;789;51.612;7.510;2023-03-23T08:27:03;4.27;;;2.50;;
1591;SDS011;789;51.612;7.510;2023-03-23T08:29:32;4.07;;;2.70;;
1591;SDS011;789;51.612;7.510;2023-03-23T08:31:59;7.93;;;2.43;;
1591;SDS011;789;51.612;7.510;2023-03-23T08:34:27;10.40;;;2.60;;
1591;SDS011;789;51.612;7.510;2023-03-23T08:36:55;8.40;;;3.07;;
1591;SDS011;789;51.612;7.510;2023-03-23T08:39:22;4.53;;;2.40;;
1591;SDS011;789;51.612;7.510;2023-03-23T08:41:51;5.97;;;2.43;;
1591;SDS011;789;51.612;7.510;2023-03-23T08:44:19;4.77;;;2.30;;
1591;SDS011;789;51.612;7.510;2023-03-23T08:46:45;2.67;;;2.00;;
1591;SDS011;789;51.612;7.510;2023-03-23T08:49:12;6.40;;;2.83;;
1591;SDS011;789;51.612;7.510;2023-03-23T08:51:39;6.10;;;2.70;;
1591;SDS011;789;51.612;7.510;2023-03-23T08:54:07;4.97;;;1.87;;
1591;SDS011;789;51.612;7.510;2023-03-23T08:56:33;6.20;;;2.73;;
1591;SDS011;789;51.612;7.510;2023-03-23T08:59:02;4.60;;;2.33;;
1591;SDS011;789;51.612;7.510;2023-03-23T09:01:28;4.50;;;2.33;;
1591;SDS011;789;51.612;7.510;2023-03-23T09:03:55;12.43;;;3.07;;
1591;SDS011;789;51.612;7.510;2023-03-23T09:06:23;6.20;;;3.13;;
1591;SDS011;789;51.612;7.510;2023-03-23T09:08:50;8.67;;;2.83;;
1591;SDS011;789;51.612;7.510;2023-03-23T09:11:17;5.00;;;2.00;;
1591;SDS011;789;51.612;7.510;2023-03-23T09:13:44;5.40;;;3.17;;
1591;SDS011;789;51.612;7.510;2023-03-23T09:16:14;3.67;;;2.20;;
1591;SDS011;789;51.612;7.510;2023-03-23T09:18:41;4.50;;;2.50;;
1591;SDS011;789;51.612;7.510;2023-03-23T09:21:07;5.23;;;2.53;;
1591;SDS011;789;51.612;7.510;2023-03-23T09:23:34;7.20;;;2.80;;
1591;SDS011;789;51.612;7.510;2023-03-23T09:26:02;10.17;;;2.60;;
1591;SDS011;789;51.612;7.510;2023-03-23T09:28:30;4.70;;;2.83;;
1591;SDS011;789;51.612;7.510;2023-03-23T09:30:57;7.03;;;2.20;;
1591;SDS011;789;51.612;7.510;2023-03-23T09:33:25;4.10;;;2.40;;
1591;SDS011;789;51.612;7.510;2023-03-23T09:35:54;6.60;;;3.47;;
1591;SDS011;789;51.612;7.510;2023-03-23T09:38:20;10.30;;;2.60;;
1591;SDS011;789;51.612;7.510;2023-03-23T09:40:48;3.97;;;2.10;;
1591;SDS011;789;51.612;7.510;2023-03-23T09:46:16;8.27;;;2.53;;
1591;SDS011;789;51.612;7.510;2023-03-23T09:49:02;11.13;;;2.30;;
1591;SDS011;789;51.612;7.510;2023-03-23T09:51:38;10.83;;;2.30;;
1591;SDS011;789;51.612;7.510;2023-03-23T09:54:11;8.90;;;2.63;;
1591;SDS011;789;51.612;7.510;2023-03-23T09:56:43;3.40;;;2.43;;
1591;SDS011;789;51.612;7.510;2023-03-23T09:59:12;6.90;;;2.30;;
1591;SDS011;789;51.612;7.510;2023-03-23T10:01:45;7.87;;;2.30;;
1591;SDS011;789;51.612;7.510;2023-03-23T10:04:19;8.40;;;2.40;;
1591;SDS011;789;51.612;7.510;2023-03-23T10:06:53;5.87;;;2.40;;
1591;SDS011;789;51.612;7.510;2023-03-23T10:09:25;6.47;;;2.20;;
1591;SDS011;789;51.612;7.510;2023-03-23T10:11:56;7.87;;;2.73;;
1591;SDS011;789;51.612;7.510;2023-03-23T10:14:32;18.27;;;4.97;;
1591;SDS011;789;51.612;7.510;2023-03-23T10:17:11;9.20;;;3.13;;
1591;SDS011;789;51.612;7.510;2023-03-23T10:19:45;6.00;;;2.33;;
1591;SDS011;789;51.612;7.510;2023-03-23T10:22:16;7.23;;;2.80;;
1591;SDS011;789;51.612;7.510;2023-03-23T10:24:49;8.67;;;3.23;;
1591;SDS011;789;51.612;7.510;2023-03-23T10:27:19;4.87;;;2.60;;
1591;SDS011;789;51.612;7.510;2023-03-23T10:29:52;10.07;;;2.77;;
1591;SDS011;789;51.612;7.510;2023-03-23T10:32:36;6.37;;;1.90;;
1591;SDS011;789;51.612;7.510;2023-03-23T10:35:11;3.60;;;2.20;;
1591;SDS011;789;51.612;7.510;2023-03-23T10:37:42;2.97;;;1.17;;
1591;SDS011;789;51.612;7.510;2023-03-23T10:40:14;2.87;;;1.37;;
1591;SDS011;789;51.612;7.510;2023-03-23T10:42:44;3.00;;;1.30;;
1591;SDS011;789;51.612;7.510;2023-03-23T10:45:13;5.13;;;1.43;;
1591;SDS011;789;51.612;7.510;2023-03-23T10:47:45;2.60;;;1.27;;
1591;SDS011;789;51.612;7.510;2023-03-23T10:50:22;7.17;;;2.50;;
1591;SDS011;789;51.612;7.510;2023-03-23T10:52:53;4.27;;;1.63;;
1591;SDS011;789;51.612;7.510;2023-03-23T10:55:23;3.33;;;1.50;;
1591;SDS011;789;51.612;7.510;2023-03-23T10:57:59;6.77;;;1.97;;
1591;SDS011;789;51.612;7.510;2023-03-23T11:00:27;4.73;;;2.10;;
1591;SDS011;789;51.612;7.510;2023-03-23T11:02:58;3.70;;;2.00;;
1591;SDS011;789;51.612;7.510;2023-03-23T11:05:32;5.07;;;1.90;;
1591;SDS011;789;51.612;7.510;2023-03-23T11:08:02;7.53;;;2.50;;
1591;SDS011;789;51.612;7.510;2023-03-23T11:10:34;6.00;;;2.70;;
1591;SDS011;789;51.612;7.510;2023-03-23T11:13:02;6.13;;;2.60;;
1591;SDS011;789;51.612;7.510;2023-03-23T11:15:35;6.37;;;2.90;;
1591;SDS011;789;51.612;7.510;2023-03-23T11:18:04;4.77;;;2.73;;
1591;SDS011;789;51.612;7.510;2023-03-23T11:20:37;4.73;;;2.13;;
1591;SDS011;789;51.612;7.510;2023-03-23T11:23:10;6.03;;;2.60;;
1591;SDS011;789;51.612;7.510;2023-03-23T11:25:50;6.47;;;3.00;;
1591;SDS011;789;51.612;7.510;2023-03-23T11:28:19;4.17;;;1.53;;
1591;SDS011;789;51.612;7.510;2023-03-23T11:30:47;3.43;;;1.70;;
1591;SDS011;789;51.612;7.510;2023-03-23T11:33:15;2.70;;;1.50;;
1591;SDS011;789;51.612;7.510;2023-03-23T11:35:44;3.63;;;1.53;;
1591;SDS011;789;51.612;7.510;2023-03-23T11:38:16;4.53;;;1.60;;
1591;SDS011;789;51.612;7.510;2023-03-23T11:40:47;3.80;;;1.50;;
1591;SDS011;789;51.612;7.510;2023-03-23T11:43:17;4.60;;;1.50;;
1591;SDS011;789;51.612;7.510;2023-03-23T11:45:47;7.13;;;1.87;;
1591;SDS011;789;51.612;7.510;2023-03-23T11:48:19;3.73;;;1.73;;
1591;SDS011;789;51.612;7.510;2023-03-23T11:50:54;2.60;;;1.50;;
1591;SDS011;789;51.612;7.510;2023-03-23T11:53:30;3.57;;;1.20;;
1591;SDS011;789;51.612;7.510;2023-03-23T11:56:06;2.80;;;1.60;;
1591;SDS011;789;51.612;7.510;2023-03-23T11:58:40;3.07;;;1.70;;
1591;SDS011;789;51.612;7.510;2023-03-23T12:01:10;4.63;;;1.50;;
1591;SDS011;789;51.612;7.510;2023-03-23T12:03:47;2.93;;;1.63;;
1591;SDS011;789;51.612;7.510;2023-03-23T12:06:27;6.47;;;1.93;;
1591;SDS011;789;51.612;7.510;2023-03-23T12:09:03;6.33;;;1.53;;
1591;SDS011;789;51.612;7.510;2023-03-23T12:11:41;3.43;;;1.90;;
1591;SDS011;789;51.612;7.510;2023-03-23T12:14:19;4.43;;;1.60;;
1591;SDS011;789;51.612;7.510;2023-03-23T12:16:53;4.40;;;1.93;;
1591;SDS011;789;51.612;7.510;2023-03-23T12:19:33;2.90;;;1.60;;
1591;SDS011;789;51.612;7.510;2023-03-23T12:22:10;6.10;;;1.57;;
1591;SDS011;789;51.612;7.510;2023-03-23T12:24:49;2.80;;;1.90;;
1591;SDS011;789;51.612;7.510;2023-03-23T12:27:25;4.10;;;1.70;;
1591;SDS011;789;51.612;7.510;2023-03-23T12:30:02;3.10;;;2.30;;
1591;SDS011;789;51.612;7.510;2023-03-23T12:32:43;3.43;;;2.53;;
1591;SDS011;789;51.612;7.510;2023-03-23T12:35:25;3.97;;;3.03;;
1591;SDS011;789;51.612;7.510;2023-03-23T12:38:07;3.87;;;3.47;;
1591;SDS011;789;51.612;7.510;2023-03-23T12:40:48;9.90;;;4.37;;
1591;SDS011;789;51.612;7.510;2023-03-23T12:43:27;6.50;;;5.37;;
1591;SDS011;789;51.612;7.510;2023-03-23T12:48:56;10.33;;;7.73;;
1591;SDS011;789;51.612;7.510;2023-03-23T12:51:27;10.50;;;9.50;;
1591;SDS011;789;51.612;7.510;2023-03-23T12:54:01;11.93;;;10.40;;
1591;SDS011;789;51.612;7.510;2023-03-23T12:56:34;11.00;;;9.40;;
1591;SDS011;789;51.612;7.510;2023-03-23T12:59:07;12.50;;;8.80;;
1591;SDS011;789;51.612;7.510;2023-03-23T13:01:42;11.47;;;8.90;;
1591;SDS011;789;51.612;7.510;2023-03-23T13:04:13;8.03;;;7.33;;
1591;SDS011;789;51.612;7.510;2023-03-23T13:06:44;7.00;;;6.40;;
1591;SDS011;789;51.612;7.510;2023-03-23T13:09:15;7.50;;;6.77;;
1591;SDS011;789;51.612;7.510;2023-03-23T13:11:46;6.60;;;5.27;;
1591;SDS011;789;51.612;7.510;2023-03-23T13:14:30;5.73;;;5.13;;
1591;SDS011;789;51.612;7.510;2023-03-23T13:17:06;5.17;;;4.63;;
1591;SDS011;789;51.612;7.510;2023-03-23T13:19:52;5.83;;;4.17;;
1591;SDS011;789;51.612;7.510;2023-03-23T13:22:33;5.10;;;3.03;;
1591;SDS011;789;51.612;7.510;2023-03-23T13:25:08;5.07;;;3.07;;
1591;SDS011;789;51.612;7.510;2023-03-23T13:27:42;5.23;;;2.80;;
1591;SDS011;789;51.612;7.510;2023-03-23T13:30:17;2.30;;;2.07;;
1591;SDS011;789;51.612;7.510;2023-03-23T13:32:49;3.73;;;2.20;;
1591;SDS011;789;51.612;7.510;2023-03-23T13:35:18;3.47;;;2.40;;
1591;SDS011;789;51.612;7.510;2023-03-23T13:37:48;4.70;;;2.50;;
1591;SDS011;789;51.612;7.510;2023-03-23T13:40:24;2.80;;;2.37;;
1591;SDS011;789;51.612;7.510;2023-03-23T13:42:54;5.10;;;1.90;;
1591;SDS011;789;51.612;7.510;2023-03-23T13:45:23;2.67;;;2.30;;
1591;SDS011;789;51.612;7.510;2023-03-23T13:48:03;2.80;;;2.60;;
1591;SDS011;789;51.612;7.510;2023-03-23T13:50:42;2.50;;;2.07;;
1591;SDS011;789;51.612;7.510;2023-03-23T13:53:22;2.60;;;2.07;;
1591;SDS011;789;51.612;7.510;2023-03-23T13:56:13;3.03;;;2.07;;
1591;SDS011;789;51.612;7.510;2023-03-23T13:58:46;3.03;;;2.20;;
1591;SDS011;789;51.612;7.510;2023-03-23T14:01:18;4.17;;;2.20;;
1591;SDS011;789;51.612;7.510;2023-03-23T14:03:59;6.73;;;2.30;;
1591;SDS011;789;51.612;7.510;2023-03-23T14:06:32;3.90;;;2.47;;
1591;SDS011;789;51.612;7.510;2023-03-23T14:09:04;4.20;;;2.60;;
1591;SDS011;789;51.612;7.510;2023-03-23T14:11:44;10.13;;;3.10;;
1591;SDS011;789;51.612;7.510;2023-03-23T14:14:15;5.70;;;2.67;;
1591;SDS011;789;51.612;7.510;2023-03-23T14:16:49;4.83;;;2.10;;
1591;SDS011;789;51.612;7.510;2023-03-23T14:19:18;3.10;;;2.00;;
1591;SDS011;789;51.612;7.510;2023-03-23T14:21:50;11.50;;;3.30;;
1591;SDS011;789;51.612;7.510;2023-03-23T14:24:20;9.07;;;3.17;;
1591;SDS011;789;51.612;7.510;2023-03-23T14:26:53;5.00;;;2.50;;
1591;SDS011;789;51.612;7.510;2023-03-23T14:29:28;4.17;;;2.10;;
1591;SDS011;789;51.612;7.510;2023-03-23T14:31:56;3.90;;;2.20;;
1591;SDS011;789;51.612;7.510;2023-03-23T14:34:24;6.27;;;2.10;;
1591;SDS011;789;51.612;7.510;2023-03-23T14:36:57;4.43;;;2.20;;
1591;SDS011;789;51.612;7.510;2023-03-23T14:39:28;3.77;;;2.10;;
1591;SDS011;789;51.612;7.510;2023-03-23T14:42:00;3.67;;;2.07;;
1591;SDS011;789;51.612;7.510;2023-03-23T14:44:32;4.03;;;1.97;;
1591;SDS011;789;51.612;7.510;2023-03-23T14:47:02;7.57;;;2.53;;
1591;SDS011;789;51.612;7.510;2023-03-23T14:49:36;6.23;;;2.43;;
1591;SDS011;789;51.612;7.510;2023-03-23T14:52:08;6.83;;;3.87;;
1591;SDS011;789;51.612;7.510;2023-03-23T14:54:41;7.40;;;3.80;;
1591;SDS011;789;51.612;7.510;2023-03-23T14:57:12;5.53;;;4.10;;
1591;SDS011;789;51.612;7.510;2023-03-23T14:59:44;6.03;;;4.50;;
1591;SDS011;789;51.612;7.510;2023-03-23T15:02:12;5.47;;;4.87;;
1591;SDS011;789;51.612;7.510;2023-03-23T15:04:45;9.60;;;5.53;;
1591;SDS011;789;51.612;7.510;2023-03-23T15:07:14;12.13;;;7.40;;
1591;SDS011;789;51.612;7.510;2023-03-23T15:09:43;6.67;;;5.90;;
1591;SDS011;789;51.612;7.510;2023-03-23T15:12:18;6.00;;;5.40;;
1591;SDS011;789;51.612;7.510;2023-03-23T15:14:48;6.40;;;5.20;;
1591;SDS011;789;51.612;7.510;2023-03-23T15:17:21;8.30;;;7.00;;
1591;SDS011;789;51.612;7.510;2023-03-23T15:19:50;6.47;;;5.80;;
1591;SDS011;789;51.612;7.510;2023-03-23T15:22:20;7.03;;;4.93;;
1591;SDS011;789;51.612;7.510;2023-03-23T15:24:49;7.83;;;5.50;;
1591;SDS011;789;51.612;7.510;2023-03-23T15:27:24;8.67;;;6.53;;
1591;SDS011;789;51.612;7.510;2023-03-23T15:29:54;6.00;;;5.40;;
1591;SDS011;789;51.612;7.510;2023-03-23T15:32:23;7.50;;;5.67;;
1591;SDS011;789;51.612;7.510;2023-03-23T15:35:03;7.33;;;5.27;;
1591;SDS011;789;51.612;7.510;2023-03-23T15:37:39;6.50;;;5.63;;
1591;SDS011;789;51.612;7.510;2023-03-23T15:40:13;6.50;;;4.90;;
1591;SDS011;789;51.612;7.510;2023-03-23T15:42:43;7.03;;;4.10;;
1591;SDS011;789;51.612;7.510;2023-03-23T15:45:21;6.03;;;3.93;;
1591;SDS011;789;51.612;7.510;2023-03-23T15:47:51;6.60;;;3.93;;
1591;SDS011;789;51.612;7.510;2023-03-23T15:50:19;4.47;;;3.90;;
1591;SDS011;789;51.612;7.510;2023-03-23T15:52:57;11.13;;;3.80;;
1591;SDS011;789;51.612;7.510;2023-03-23T15:55:25;12.40;;;4.60;;
1591;SDS011;789;51.612;7.510;2023-03-23T15:57:57;6.57;;;4.00;;